Time;durP1;ratioP1;P1;durP2;ratioP2;P2;SDS_P1;SDS_P2;PMS_P1;PMS_P2;Temp;Humidity;BMP_temperature;BMP_pressure;BME280_temperature;BME280_humidity;BME280_pressure;Samples;Min_cycle;Max_cycle;Signal;HPM_P1;HPM_P2
2022/09/22 00:00:54;;;;;;;;;;;;;;;10.75;59.77;100241.81;4377928;32;19990;-91
2022/09/22 00:03:20;;;;;;;;;;;;;;;10.89;59.79;100242.31;4378447;32;19999;-91
2022/09/22 00:05:45;;;;;;;;;;;;;;;10.77;59.79;100238.28;4379260;32;19982;-91
2022/09/22 00:08:10;;;;;;;;;;;;;;;10.63;59.77;100244.69;4368202;32;20030;-91
2022/09/22 00:10:35;;;;;;;;;;;;;;;10.66;59.77;100240.28;4368456;32;25700;-90
2022/09/22 00:13:00;;;;;;;;;;;;;;;10.46;59.75;100242.53;4370107;32;20009;-91
2022/09/22 00:15:27;;;;;;;;;;;;;;;10.48;59.77;100239.88;4377060;32;20092;-90
2022/09/22 00:17:52;;;;;;;;;;;;;;;10.52;59.76;100237.16;4381041;32;19997;-88
2022/09/22 00:20:17;;;;;;;;;;;;;;;10.56;59.77;100238.78;4379994;32;23396;-87
2022/09/22 00:22:43;;;;;;;;;;;;;;;10.59;59.76;100240.47;4380240;32;20001;-88
2022/09/22 00:25:09;;;;;;;;;;;;;;;10.58;59.77;100236.16;4368175;32;19978;-89
2022/09/22 00:27:34;;;;;;;;;;;;;;;10.70;59.78;100236.72;4367987;32;20450;-88
2022/09/22 00:29:59;;;;;;;;;;;;;;;10.66;59.77;100231.62;4367281;32;21602;-88
2022/09/22 00:32:24;;;;;;;;;;;;;;;10.66;59.77;100234.25;4394139;32;19978;-88
2022/09/22 00:34:50;;;;;;;;;;;;;;;10.62;59.78;100233.44;4380360;32;20308;-87
2022/09/22 00:37:15;;;;;;;;;;;;;;;10.66;59.77;100229.88;4393651;32;19982;-88
2022/09/22 00:39:40;;;;;;;;;;;;;;;10.64;59.77;100229.03;4367991;32;19995;-88
2022/09/22 00:42:05;;;;;;;;;;;;;;;10.56;59.77;100230.97;4381030;32;19986;-87
2022/09/22 00:44:49;;;;;;;;;;;;;;;10.64;59.77;100220.37;4380350;32;19997;-88
2022/09/22 00:47:18;;;;;;;;;;;;;;;10.60;59.76;100229.16;4394298;32;19997;-88
2022/09/22 00:50:07;;;;;;;;;;;;;;;10.65;59.77;100220.37;4394217;32;19978;-89
2022/09/22 00:52:37;;;;;;;;;;;;;;;10.69;59.78;100229.81;4386060;32;19986;-88
2022/09/22 00:55:04;;;;;;;;;;;;;;;10.48;59.76;100224.25;4367987;32;19977;-90
2022/09/22 00:57:30;;;;;;;;;;;;;;;10.80;59.78;100216.50;4367895;32;20024;-89
2022/09/22 00:59:55;;;;;;;;;;;;;;;10.51;59.76;100216.37;4367038;32;20332;-89
2022/09/22 01:02:21;;;;;;;;;;;;;;;10.67;59.77;100215.97;4380386;32;20021;-89
2022/09/22 01:04:46;;;;;;;;;;;;;;;10.41;59.76;100215.75;4380195;32;20350;-87
2022/09/22 01:07:12;;;;;;;;;;;;;;;10.35;59.76;100219.34;4367676;32;19982;-89
2022/09/22 01:09:37;;;;;;;;;;;;;;;10.18;59.75;100218.00;4380082;32;19997;-89
2022/09/22 01:12:02;;;;;;;;;;;;;;;10.11;59.74;100212.06;4367794;32;22184;-88
2022/09/22 01:14:36;;;;;;;;;;;;;;;10.61;59.77;100215.25;4367595;32;19979;-88
2022/09/22 01:17:01;;;;;;;;;;;;;;;10.24;59.76;100210.94;4392940;32;19989;-90
2022/09/22 01:19:48;;;;;;;;;;;;;;;10.30;59.75;100207.31;4393868;32;19990;-89
2022/09/22 01:22:18;;;;;;;;;;;;;;;10.07;59.73;100206.09;4375169;32;19995;-90
2022/09/22 01:25:02;;;;;;;;;;;;;;;10.22;59.74;100204.91;4368148;32;20005;-90
2022/09/22 01:27:40;;;;;;;;;;;;;;;10.34;59.75;100199.41;4380282;32;20054;-90
2022/09/22 01:30:24;;;;;;;;;;;;;;;10.10;59.74;100203.41;4394573;32;19974;-89
2022/09/22 01:32:52;;;;;;;;;;;;;;;10.03;59.73;100206.19;4394484;32;19986;-88
2022/09/22 01:35:30;;;;;;;;;;;;;;;10.20;59.75;100211.03;4394329;32;19988;-86
2022/09/22 01:38:07;;;;;;;;;;;;;;;10.33;59.75;100202.91;4394717;32;20311;-88
2022/09/22 01:40:35;;;;;;;;;;;;;;;10.33;59.76;100212.47;4381195;32;19982;-89
2022/09/22 01:43:07;;;;;;;;;;;;;;;10.26;59.75;100210.91;4381004;32;20428;-88
2022/09/22 01:45:32;;;;;;;;;;;;;;;10.15;59.74;100211.09;4394167;32;19994;-89
2022/09/22 01:48:05;;;;;;;;;;;;;;;9.93;59.73;100221.13;4380287;32;20016;-89
2022/09/22 01:50:54;;;;;;;;;;;;;;;10.10;59.74;100218.16;4367747;32;20006;-88
2022/09/22 01:53:20;;;;;;;;;;;;;;;9.89;59.73;100216.87;4386167;32;19990;-89
2022/09/22 01:55:50;;;;;;;;;;;;;;;10.02;59.73;100217.47;4367755;32;19974;-89
2022/09/22 01:58:17;;;;;;;;;;;;;;;9.93;59.73;100220.25;4380549;32;20005;-89
2022/09/22 02:00:56;;;;;;;;;;;;;;;9.90;59.73;100213.37;4380718;32;19990;-89
2022/09/22 02:03:27;;;;;;;;;;;;;;;9.91;59.73;100219.44;4380743;32;20399;-89
2022/09/22 02:05:54;;;;;;;;;;;;;;;9.93;59.73;100202.91;4393874;32;19999;-89
2022/09/22 02:08:21;;;;;;;;;;;;;;;9.89;59.73;100206.47;4367472;32;20081;-90
2022/09/22 02:10:47;;;;;;;;;;;;;;;9.90;59.73;100195.19;4379935;32;19990;-90
2022/09/22 02:13:12;;;;;;;;;;;;;;;9.77;59.72;100204.16;4367640;32;19998;-89
2022/09/22 02:18:31;;;;;;;;;;;;;;;9.75;59.72;100206.78;4382375;32;20001;-89
2022/09/22 02:20:56;;;;;;;;;;;;;;;9.87;59.73;100210.88;4379869;32;20050;-89
2022/09/22 02:23:21;;;;;;;;;;;;;;;9.90;59.73;100209.94;4367174;32;26999;-89
2022/09/22 02:25:46;;;;;;;;;;;;;;;9.93;59.73;100209.87;4380024;32;20380;-89
2022/09/22 02:28:12;;;;;;;;;;;;;;;9.96;59.73;100205.47;4379220;32;24172;-90
2022/09/22 02:30:38;;;;;;;;;;;;;;;9.97;59.73;100201.12;4380005;32;19982;-89
2022/09/22 02:33:03;;;;;;;;;;;;;;;9.91;59.73;100202.09;4380080;32;19982;-90
2022/09/22 02:35:29;;;;;;;;;;;;;;;9.85;59.72;100204.84;4379403;32;26478;-88
2022/09/22 02:38:07;;;;;;;;;;;;;;;9.76;59.72;100203.31;4380136;32;20022;-88
2022/09/22 02:40:42;;;;;;;;;;;;;;;9.72;59.72;100204.25;4380231;32;19982;-88
2022/09/22 02:43:23;;;;;;;;;;;;;;;9.86;59.72;100203.94;4380533;32;19998;-89
2022/09/22 02:45:51;;;;;;;;;;;;;;;9.94;59.73;100201.22;4379526;32;19979;-87
2022/09/22 02:48:18;;;;;;;;;;;;;;;9.74;59.73;100210.28;4379883;32;19978;-87
2022/09/22 02:50:43;;;;;;;;;;;;;;;9.93;59.73;100204.66;4380028;32;20003;-88
2022/09/22 02:53:12;;;;;;;;;;;;;;;9.98;59.73;100200.25;4380040;32;20013;-88
2022/09/22 02:55:37;;;;;;;;;;;;;;;9.94;59.74;100204.66;4367113;32;20335;-86
2022/09/22 02:58:03;;;;;;;;;;;;;;;9.71;59.72;100205.16;4379959;32;19975;-87
2022/09/22 03:00:28;;;;;;;;;;;;;;;9.88;59.73;100203.91;4379552;32;20129;-87
2022/09/22 03:02:53;;;;;;;;;;;;;;;9.79;59.73;100204.97;4380275;32;20028;-88
2022/09/22 03:05:18;;;;;;;;;;;;;;;9.69;59.72;100198.25;4379379;32;31341;-88
2022/09/22 03:07:43;;;;;;;;;;;;;;;9.53;59.71;100195.12;4365881;32;32385;-87
2022/09/22 03:10:09;;;;;;;;;;;;;;;9.56;59.70;100195.06;4393025;32;27991;-88
2022/09/22 03:12:34;;;;;;;;;;;;;;;9.39;59.70;100199.75;4379836;32;20031;-87
2022/09/22 03:14:59;;;;;;;;;;;;;;;9.38;59.70;100198.88;4366982;32;20018;-87
2022/09/22 03:17:24;;;;;;;;;;;;;;;9.39;59.70;100203.19;4379222;32;20005;-88
2022/09/22 03:19:50;;;;;;;;;;;;;;;9.70;59.71;100206.03;4366800;32;20006;-87
2022/09/22 03:22:15;;;;;;;;;;;;;;;9.94;59.73;100201.22;4393228;32;19974;-87
2022/09/22 03:24:40;;;;;;;;;;;;;;;9.77;59.72;100202.41;4379539;32;20308;-88
2022/09/22 03:27:05;;;;;;;;;;;;;;;9.63;59.71;100201.84;4379514;32;19975;-87
2022/09/22 03:29:31;;;;;;;;;;;;;;;9.49;59.71;100209.94;4392725;32;22491;-87
2022/09/22 03:31:56;;;;;;;;;;;;;;;9.82;59.72;100202.31;4378289;32;29334;-87
2022/09/22 03:34:21;;;;;;;;;;;;;;;9.81;59.73;100198.84;4392640;32;23453;-87
2022/09/22 03:36:47;;;;;;;;;;;;;;;9.68;59.72;100197.41;4392352;32;20277;-87
2022/09/22 03:39:12;;;;;;;;;;;;;;;9.67;59.72;100195.69;4378010;32;19991;-87
2022/09/22 03:41:37;;;;;;;;;;;;;;;9.72;59.71;100198.22;4394107;32;19989;-88
2022/09/22 03:44:03;;;;;;;;;;;;;;;9.67;59.72;100189.63;4381422;32;20034;-87
2022/09/22 03:46:29;;;;;;;;;;;;;;;9.53;59.71;100185.59;4394571;32;20366;-87
2022/09/22 03:48:55;;;;;;;;;;;;;;;9.44;59.70;100188.38;4368538;32;20351;-87
2022/09/22 03:51:20;;;;;;;;;;;;;;;9.60;59.71;100185.47;4381423;32;20014;-88
2022/09/22 03:53:46;;;;;;;;;;;;;;;9.65;59.71;100189.66;4380973;32;19988;-89
2022/09/22 03:56:12;;;;;;;;;;;;;;;9.42;59.71;100195.34;4394626;32;19967;-88
2022/09/22 03:58:37;;;;;;;;;;;;;;;9.47;59.70;100195.28;4394894;32;20022;-88
2022/09/22 04:01:03;;;;;;;;;;;;;;;9.52;59.71;100190.81;4368275;32;20244;-89
2022/09/22 04:03:28;;;;;;;;;;;;;;;9.54;59.71;100189.91;4394957;32;19989;-89
2022/09/22 04:05:54;;;;;;;;;;;;;;;9.44;59.70;100196.16;4394816;32;20006;-88
2022/09/22 04:08:19;;;;;;;;;;;;;;;9.24;59.69;100193.13;4394619;32;20283;-89
2022/09/22 04:10:44;;;;;;;;;;;;;;;9.40;59.70;100188.47;4380708;32;20018;-89
2022/09/22 04:13:10;;;;;;;;;;;;;;;9.42;59.71;100194.47;4368138;32;19986;-88
2022/09/22 04:15:35;;;;;;;;;;;;;;;9.31;59.69;100193.84;4380257;32;19975;-87
2022/09/22 04:18:00;;;;;;;;;;;;;;;9.25;59.69;100191.38;4380685;32;20004;-87
2022/09/22 04:20:26;;;;;;;;;;;;;;;9.43;59.70;100186.66;4394290;32;19982;-92
2022/09/22 04:22:51;;;;;;;;;;;;;;;9.03;59.68;100198.72;4368028;32;20023;-89
2022/09/22 04:25:17;;;;;;;;;;;;;;;9.41;59.70;100201.41;4368017;32;19971;-89
2022/09/22 04:27:42;;;;;;;;;;;;;;;9.38;59.70;100195.44;4369055;32;20002;-91
2022/09/22 04:30:07;;;;;;;;;;;;;;;9.35;59.70;100191.16;4373286;32;19982;-87
2022/09/22 04:32:33;;;;;;;;;;;;;;;9.44;59.70;100195.31;4387426;32;20225;-88
2022/09/22 04:34:58;;;;;;;;;;;;;;;9.29;59.70;100193.03;4380551;32;21833;-88
2022/09/22 04:37:23;;;;;;;;;;;;;;;9.26;59.70;100204.34;4367235;32;29757;-88
2022/09/22 04:39:49;;;;;;;;;;;;;;;9.27;59.70;100208.66;4380306;32;23655;-87
2022/09/22 04:42:14;;;;;;;;;;;;;;;9.28;59.69;100210.37;4380471;32;20308;-87
2022/09/22 04:44:39;;;;;;;;;;;;;;;9.37;59.70;100217.09;4380775;32;19970;-87
2022/09/22 04:47:05;;;;;;;;;;;;;;;9.34;59.70;100210.22;4380775;32;20009;-87
2022/09/22 04:49:30;;;;;;;;;;;;;;;9.53;59.71;100209.00;4367849;32;20002;-88
2022/09/22 04:51:55;;;;;;;;;;;;;;;9.57;59.71;100201.97;4380156;32;19974;-88
2022/09/22 04:54:20;;;;;;;;;;;;;;;9.51;59.70;100209.91;4371124;32;20240;-88
2022/09/22 04:56:46;;;;;;;;;;;;;;;9.65;59.72;100205.25;4384758;32;20009;-89
2022/09/22 04:59:11;;;;;;;;;;;;;;;9.50;59.70;100203.00;4384022;32;20763;-88
2022/09/22 05:01:36;;;;;;;;;;;;;;;9.68;59.71;100204.34;4370173;32;19991;-88
2022/09/22 05:04:01;;;;;;;;;;;;;;;9.55;59.71;100208.94;4371002;32;19993;-88
2022/09/22 05:06:27;;;;;;;;;;;;;;;9.45;59.70;100204.81;4383122;32;19987;-87
2022/09/22 05:08:52;;;;;;;;;;;;;;;9.50;59.71;100203.00;4384441;32;20025;-89
2022/09/22 05:11:22;;;;;;;;;;;;;;;9.50;59.70;100209.06;4371739;32;19979;-88
2022/09/22 05:13:48;;;;;;;;;;;;;;;9.50;59.71;100205.59;4370734;32;19997;-88
2022/09/22 05:16:13;;;;;;;;;;;;;;;9.52;59.71;100203.81;4371588;32;19986;-87
2022/09/22 05:18:38;;;;;;;;;;;;;;;9.55;59.71;100206.34;4383491;32;20009;-89
2022/09/22 05:21:04;;;;;;;;;;;;;;;9.59;59.71;100202.78;4383657;32;20009;-87
2022/09/22 05:23:31;;;;;;;;;;;;;;;9.58;59.71;100198.50;4383622;32;19989;-88
2022/09/22 05:25:56;;;;;;;;;;;;;;;9.65;59.71;100196.59;4384174;32;19983;-87
2022/09/22 05:28:21;;;;;;;;;;;;;;;9.73;59.72;100194.72;4383449;32;19982;-88
2022/09/22 05:30:48;;;;;;;;;;;;;;;9.78;59.72;100196.31;4383432;32;19979;-89
2022/09/22 05:33:13;;;;;;;;;;;;;;;9.95;59.73;100201.16;4383174;32;19970;-88
2022/09/22 05:35:38;;;;;;;;;;;;;;;10.00;59.73;100199.31;4383728;32;19993;-88
2022/09/22 05:38:04;;;;;;;;;;;;;;;10.10;59.74;100203.41;4384110;32;20334;-87
2022/09/22 05:40:29;;;;;;;;;;;;;;;10.26;59.75;100195.28;4371532;32;19993;-88
2022/09/22 05:42:55;;;;;;;;;;;;;;;10.06;59.73;100201.78;4383582;32;19982;-88
2022/09/22 05:45:20;;;;;;;;;;;;;;;10.15;59.74;100208.50;4384643;32;19995;-88
2022/09/22 05:47:45;;;;;;;;;;;;;;;10.14;59.74;100204.19;4384733;32;19999;-88
2022/09/22 05:50:11;;;;;;;;;;;;;;;10.22;59.74;100199.72;4371241;32;20036;-87
2022/09/22 05:52:36;;;;;;;;;;;;;;;10.34;59.75;100202.00;4397226;32;20108;-88
2022/09/22 05:55:02;;;;;;;;;;;;;;;10.48;59.76;100209.50;4375365;32;19997;-87
2022/09/22 05:57:27;;;;;;;;;;;;;;;10.50;59.76;100210.31;4391051;32;20271;-87
2022/09/22 05:59:53;;;;;;;;;;;;;;;10.69;59.77;100210.72;4383708;32;19985;-88
2022/09/22 06:02:18;;;;;;;;;;;;;;;10.92;59.79;100204.94;4370458;32;19990;-87
2022/09/22 06:04:43;;;;;;;;;;;;;;;10.86;59.78;100205.91;4369405;32;20045;-88
2022/09/22 06:07:09;;;;;;;;;;;;;;;10.88;59.78;100208.47;4371050;32;20006;-89
2022/09/22 06:09:34;;;;;;;;;;;;;;;10.96;59.79;100206.56;4371010;32;20026;-87
2022/09/22 06:11:59;;;;;;;;;;;;;;;11.02;59.79;100206.37;4383114;32;20088;-88
2022/09/22 06:14:25;;;;;;;;;;;;;;;10.99;59.79;100209.06;4384197;32;20354;-89
2022/09/22 06:16:50;;;;;;;;;;;;;;;11.12;59.79;100213.06;4371768;32;20433;-87
2022/09/22 06:19:15;;;;;;;;;;;;;;;11.44;59.80;100213.94;4383864;32;19981;-87
2022/09/22 06:21:40;;;;;;;;;;;;;;;11.46;59.82;100214.75;4384259;32;19979;-88
2022/09/22 06:24:06;;;;;;;;;;;;;;;11.51;59.81;100210.25;4382025;32;20045;-87
2022/09/22 06:26:31;;;;;;;;;;;;;;;11.51;59.81;100213.72;4396679;32;19983;-89
2022/09/22 06:28:57;;;;;;;;;;;;;;;11.42;59.81;100213.13;4397230;32;20032;-89
2022/09/22 06:31:22;;;;;;;;;;;;;;;11.55;59.82;100217.94;4370516;32;19997;-88
2022/09/22 06:33:49;;;;;;;;;;;;;;;11.54;59.82;100215.38;4383018;32;19986;-89
2022/09/22 06:36:22;;;;;;;;;;;;;;;11.82;59.82;100212.84;4371416;32;19998;-88
2022/09/22 06:38:47;;;;;;;;;;;;;;;11.64;59.82;100209.00;4384382;32;19986;-89
2022/09/22 06:41:12;;;;;;;;;;;;;;;11.58;59.81;100210.03;4371677;32;19974;-89
2022/09/22 06:43:37;;;;;;;;;;;;;;;11.75;59.83;100217.34;4372280;32;19994;-89
2022/09/22 06:46:03;;;;;;;;;;;;;;;11.96;59.83;100208.94;4371096;32;20320;-88
2022/09/22 06:48:28;;;;;;;;;;;;;;;12.15;59.85;100211.84;4381489;32;19998;-89
2022/09/22 06:50:53;;;;;;;;;;;;;;;12.24;59.85;100208.94;4380785;32;19996;-87
2022/09/22 06:53:19;;;;;;;;;;;;;;;12.32;59.85;100200.03;4369713;32;19998;-88
2022/09/22 06:55:44;;;;;;;;;;;;;;;12.49;59.87;100201.16;4369664;32;20052;-88
2022/09/22 06:58:12;;;;;;;;;;;;;;;12.54;59.87;100209.72;4369590;32;19987;-89
2022/09/22 07:00:40;;;;;;;;;;;;;;;12.57;59.86;100214.00;4370264;32;19965;-88
2022/09/22 07:03:10;;;;;;;;;;;;;;;12.60;59.88;100214.75;4371460;32;19998;-89
2022/09/22 07:05:36;;;;;;;;;;;;;;;12.81;59.88;100207.09;4370442;32;20014;-89
2022/09/22 07:08:03;;;;;;;;;;;;;;;12.85;59.89;100206.94;4382856;32;19997;-90
2022/09/22 07:10:28;;;;;;;;;;;;;;;12.94;59.89;100212.75;4384040;32;19958;-89
2022/09/22 07:12:54;;;;;;;;;;;;;;;13.08;59.90;100203.53;4371819;32;20002;-89
2022/09/22 07:15:19;;;;;;;;;;;;;;;13.28;59.91;100204.62;4382454;32;19986;-89
2022/09/22 07:17:46;;;;;;;;;;;;;;;13.48;59.92;100187.28;4396680;32;20014;-88
2022/09/22 07:20:12;;;;;;;;;;;;;;;13.55;59.92;100198.38;4387919;32;19989;-88
2022/09/22 07:22:38;;;;;;;;;;;;;;;13.43;59.92;100204.91;4386680;32;19986;-87
2022/09/22 07:25:03;;;;;;;;;;;;;;;13.25;59.90;100194.25;4370956;32;19998;-89
2022/09/22 07:27:29;;;;;;;;;;;;;;;13.29;59.91;100206.34;4383497;32;20034;-89
2022/09/22 07:29:56;;;;;;;;;;;;;;;13.41;59.91;100201.50;4382337;32;19983;-88
2022/09/22 07:32:21;;;;;;;;;;;;;;;13.46;59.92;100202.16;4382131;32;20006;-88
2022/09/22 07:34:48;;;;;;;;;;;;;;;13.69;59.93;100206.56;4396241;32;20335;-88
2022/09/22 07:37:14;;;;;;;;;;;;;;;13.77;59.94;100204.53;4369402;32;20018;-87
2022/09/22 07:39:39;;;;;;;;;;;;;;;14.02;59.95;100203.59;4380121;32;19971;-87
2022/09/22 07:42:05;;;;;;;;;;;;;;;13.80;59.94;100207.03;4379205;32;20025;-88
2022/09/22 07:47:14;;;;;;;;;;;;;;;13.89;59.94;100212.81;4380737;32;20032;-89
2022/09/22 07:49:39;;;;;;;;;;;;;;;13.82;59.94;100204.34;4378537;32;27055;-89
2022/09/22 07:52:04;;;;;;;;;;;;;;;13.86;59.94;100215.53;4366827;32;20080;-88
2022/09/22 07:54:32;;;;;;;;;;;;;;;13.87;59.94;100207.63;4379494;32;20264;-88
2022/09/22 07:56:58;;;;;;;;;;;;;;;13.81;59.94;100211.34;4379611;32;19990;-88
2022/09/22 07:59:23;;;;;;;;;;;;;;;13.99;59.95;100208.94;4379035;32;20006;-87
2022/09/22 08:01:49;;;;;;;;;;;;;;;14.01;59.94;100207.13;4392583;32;20328;-87
2022/09/22 08:04:19;;;;;;;;;;;;;;;14.15;59.96;100204.78;4379329;32;20050;-87
2022/09/22 08:06:45;;;;;;;;;;;;;;;14.34;59.97;100199.69;4379219;32;20124;-90
2022/09/22 08:09:10;;;;;;;;;;;;;;;14.55;59.98;100203.25;4366657;32;19995;-89
2022/09/22 08:11:36;;;;;;;;;;;;;;;14.55;59.97;100211.09;4366615;32;20603;-87
2022/09/22 08:14:02;;;;;;;;;;;;;;;14.59;59.98;100210.03;4366844;32;20024;-89
2022/09/22 08:16:28;;;;;;;;;;;;;;;14.69;59.98;100211.41;4366323;32;19970;-89
2022/09/22 08:18:54;;;;;;;;;;;;;;;14.82;59.99;100220.44;4366574;32;19991;-89
2022/09/22 08:21:20;;;;;;;;;;;;;;;14.80;60.00;100217.03;4364123;32;19991;-86
2022/09/22 08:23:45;;;;;;;;;;;;;;;14.94;60.00;100212.06;4366356;32;20020;-86
2022/09/22 08:26:10;;;;;;;;;;;;;;;15.16;60.01;100205.91;4393001;32;20241;-86
2022/09/22 08:28:36;;;;;;;;;;;;;;;15.16;60.01;100208.53;4380996;32;19993;-87
2022/09/22 08:31:01;;;;;;;;;;;;;;;15.23;60.01;100213.44;4381048;32;19982;-86
2022/09/22 08:33:27;;;;;;;;;;;;;;;15.15;60.01;100210.28;4368572;32;19994;-86
2022/09/22 08:35:53;;;;;;;;;;;;;;;15.37;60.02;100210.19;4372485;32;20046;-87
2022/09/22 08:38:20;;;;;;;;;;;;;;;15.51;60.03;100197.31;4377284;32;20005;-87
2022/09/22 08:40:46;;;;;;;;;;;;;;;15.63;60.04;100203.81;4390440;32;19994;-86
2022/09/22 08:43:11;;;;;;;;;;;;;;;15.49;60.03;100201.78;4366028;32;20008;-87
2022/09/22 08:45:43;;;;;;;;;;;;;;;15.77;60.04;100203.16;4389272;32;19947;-86
2022/09/22 08:53:58;;;;;;;;;;;;;;;16.37;60.07;100188.06;4382969;32;20052;-87
2022/09/22 08:56:24;;;;;;;;;;;;;;;16.44;60.08;100179.81;4368077;32;19991;-86
2022/09/22 08:59:13;;;;;;;;;;;;;;;16.65;60.09;100179.66;4380742;32;19978;-87
2022/09/22 09:01:41;;;;;;;;;;;;;;;16.78;60.09;100188.66;4372636;32;20002;-86
2022/09/22 09:04:09;;;;;;;;;;;;;;;16.93;60.11;100184.41;4367969;32;20077;-87
2022/09/22 09:06:38;;;;;;;;;;;;;;;17.19;60.12;100183.91;4394201;32;20031;-87
2022/09/22 09:09:06;;;;;;;;;;;;;;;17.36;60.13;100180.41;4380551;32;19982;-87
2022/09/22 09:11:37;;;;;;;;;;;;;;;17.24;60.12;100186.28;4394284;32;20244;-87
2022/09/22 09:14:03;;;;;;;;;;;;;;;17.40;60.14;100181.94;4394446;32;20012;-87
2022/09/22 09:16:34;;;;;;;;;;;;;;;17.34;60.13;100179.63;4394253;32;19990;-89
2022/09/22 09:19:06;;;;;;;;;;;;;;;17.52;60.14;100177.81;4394058;32;20170;-87
2022/09/22 09:21:31;;;;;;;;;;;;;;;17.70;60.15;100177.66;4380539;32;20050;-86
2022/09/22 09:23:58;;;;;;;;;;;;;;;17.99;60.16;100170.81;4394270;32;19979;-87
2022/09/22 09:26:23;;;;;;;;;;;;;;;18.30;60.17;100171.72;4394122;32;19994;-87
2022/09/22 09:28:59;;;;;;;;;;;;;;;18.44;60.18;100170.91;4367826;32;20240;-86
2022/09/22 09:31:28;;;;;;;;;;;;;;;18.51;60.19;100169.63;4368019;32;20002;-87
2022/09/22 09:33:57;;;;;;;;;;;;;;;18.79;60.21;100175.03;4368218;32;20339;-85
2022/09/22 09:36:24;;;;;;;;;;;;;;;19.23;60.22;100168.88;4380698;32;19993;-87
2022/09/22 09:38:50;;;;;;;;;;;;;;;19.02;60.22;100171.84;4393973;32;20366;-87
2022/09/22 09:41:16;;;;;;;;;;;;;;;19.07;60.22;100171.56;4380614;32;20004;-86
2022/09/22 09:43:42;;;;;;;;;;;;;;;19.02;60.23;100169.22;4380775;32;19998;-87
2022/09/22 09:46:07;;;;;;;;;;;;;;;19.16;60.22;100178.94;4394281;32;19999;-87
2022/09/22 09:48:42;;;;;;;;;;;;;;;19.21;60.22;100179.53;4394150;32;20021;-85
2022/09/22 09:51:10;;;;;;;;;;;;;;;19.35;60.24;100172.53;4380529;32;20050;-88
2022/09/22 09:53:41;;;;;;;;;;;;;;;19.45;60.24;100171.03;4380642;32;20013;-85
2022/09/22 09:56:32;;;;;;;;;;;;;;;19.78;60.26;100171.59;4380279;32;20351;-88
2022/09/22 10:01:46;;;;;;;;;;;;;;;20.33;60.29;100164.53;4379813;32;20865;-87
2022/09/22 10:04:18;;;;;;;;;;;;;;;20.48;60.30;100166.22;4368168;32;20044;-88
2022/09/22 10:06:44;;;;;;;;;;;;;;;20.34;60.29;100166.22;4384250;32;20009;-88
2022/09/22 10:09:11;;;;;;;;;;;;;;;20.53;60.30;100169.37;4393550;32;20320;-89
2022/09/22 10:11:37;;;;;;;;;;;;;;;20.66;60.31;100162.34;4389218;32;20009;-88
2022/09/22 10:14:02;;;;;;;;;;;;;;;20.13;60.28;100168.50;4367377;32;19994;-86
2022/09/22 10:16:29;;;;;;;;;;;;;;;20.12;60.28;100169.44;4378840;32;19986;-87
2022/09/22 10:18:57;;;;;;;;;;;;;;;20.08;60.27;100165.28;4369318;32;19971;-87
2022/09/22 10:21:22;;;;;;;;;;;;;;;19.77;60.27;100167.25;4392787;32;20080;-87
2022/09/22 10:23:51;;;;;;;;;;;;;;;20.02;60.28;100166.53;4379013;32;19982;-87
2022/09/22 10:26:21;;;;;;;;;;;;;;;19.78;60.27;100168.94;4379074;32;19993;-87
2022/09/22 10:29:05;;;;;;;;;;;;;;;19.62;60.25;100170.84;4366464;32;20048;-88
2022/09/22 10:31:31;;;;;;;;;;;;;;;19.98;60.27;100169.47;4393212;32;19993;-88
2022/09/22 10:33:57;;;;;;;;;;;;;;;20.07;60.27;100166.22;4366684;32;20347;-88
2022/09/22 10:36:24;;;;;;;;;;;;;;;20.30;60.29;100164.75;4379179;32;19974;-88
2022/09/22 10:38:50;;;;;;;;;;;;;;;20.50;60.31;100161.66;4379482;32;20028;-88
2022/09/22 10:41:26;;;;;;;;;;;;;;;20.84;60.32;100155.81;4379079;32;20017;-88
2022/09/22 10:43:55;;;;;;;;;;;;;;;20.70;60.30;100160.34;4380076;32;20320;-88
2022/09/22 10:46:41;;;;;;;;;;;;;;;20.96;60.33;100154.12;4378915;32;19989;-88
2022/09/22 10:49:10;;;;;;;;;;;;;;;21.11;60.34;100149.56;4392140;32;20387;-88
2022/09/22 10:51:35;;;;;;;;;;;;;;;21.17;60.33;100150.94;4378885;32;20032;-87
2022/09/22 10:54:10;;;;;;;;;;;;;;;21.14;60.33;100147.56;4393330;32;19985;-88
2022/09/22 10:56:36;;;;;;;;;;;;;;;20.94;60.33;100147.25;4393574;32;19978;-88
2022/09/22 10:59:07;;;;;;;;;;;;;;;20.95;60.33;100147.12;4380265;32;20016;-89
2022/09/22 11:01:52;;;;;;;;;;;;;;;21.01;60.34;100140.56;4380059;32;20057;-88
2022/09/22 11:04:20;;;;;;;;;;;;;;;21.17;60.35;100141.19;4380101;32;19991;-88
2022/09/22 11:12:18;;;;;;;;;;;;;;;21.39;60.35;100130.00;4393504;32;20000;-89
2022/09/22 11:14:47;;;;;;;;;;;;;;;21.32;60.36;100120.78;4393710;32;19994;-89
2022/09/22 11:17:18;;;;;;;;;;;;;;;21.43;60.35;100127.00;4393696;32;19991;-89
2022/09/22 11:19:46;;;;;;;;;;;;;;;21.39;60.35;100119.41;4394579;32;19966;-87
2022/09/22 11:22:17;;;;;;;;;;;;;;;21.62;60.37;100123.91;4393449;32;19986;-88
2022/09/22 11:25:08;;;;;;;;;;;;;;;21.75;60.37;100108.78;4367481;32;20048;-87
2022/09/22 11:27:37;;;;;;;;;;;;;;;21.81;60.37;100109.31;4390640;32;20050;-86
2022/09/22 11:30:10;;;;;;;;;;;;;;;21.52;60.36;100116.69;4379730;32;19986;-87
2022/09/22 11:32:35;;;;;;;;;;;;;;;21.53;60.36;100105.16;4367541;32;20008;-87
2022/09/22 11:35:06;;;;;;;;;;;;;;;21.90;60.38;100104.19;4383117;32;19991;-87
2022/09/22 11:37:55;;;;;;;;;;;;;;;21.79;60.36;100108.59;4399686;32;19979;-87
2022/09/22 11:40:26;;;;;;;;;;;;;;;21.66;60.37;100095.38;4367501;32;19982;-88
2022/09/22 11:42:51;;;;;;;;;;;;;;;22.17;60.39;100096.03;4379734;32;20173;-87
2022/09/22 11:45:36;;;;;;;;;;;;;;;22.24;60.41;100086.69;4393236;32;20004;-87
2022/09/22 11:48:07;;;;;;;;;;;;;;;22.19;60.40;100083.50;4379467;32;19990;-87
2022/09/22 11:50:38;;;;;;;;;;;;;;;22.24;60.39;100085.81;4379316;32;19982;-89
2022/09/22 11:53:08;;;;;;;;;;;;;;;22.27;60.40;100080.28;4393115;32;19990;-88
2022/09/22 11:55:36;;;;;;;;;;;;;;;22.23;60.39;100077.00;4379263;32;19994;-88
2022/09/22 11:58:07;;;;;;;;;;;;;;;21.89;60.38;100069.84;4379355;32;19998;-88
2022/09/22 12:00:34;;;;;;;;;;;;;;;21.74;60.37;100075.31;4368219;32;19978;-88
2022/09/22 12:03:00;;;;;;;;;;;;;;;21.61;60.36;100077.16;4394943;32;20328;-88
2022/09/22 12:05:27;;;;;;;;;;;;;;;21.59;60.37;100075.59;4395105;32;20002;-88
2022/09/22 12:07:54;;;;;;;;;;;;;;;21.49;60.37;100075.41;4368519;32;20043;-87
2022/09/22 12:10:21;;;;;;;;;;;;;;;21.47;60.36;100071.16;4394916;32;19970;-87
2022/09/22 12:12:49;;;;;;;;;;;;;;;21.38;60.36;100070.03;4394971;32;19995;-89
2022/09/22 12:15:14;;;;;;;;;;;;;;;21.31;60.35;100066.16;4369136;32;20030;-88
2022/09/22 12:17:42;;;;;;;;;;;;;;;21.22;60.34;100074.69;4395221;32;19978;-88
2022/09/22 12:20:08;;;;;;;;;;;;;;;21.12;60.35;100064.75;4368644;32;19971;-88
2022/09/22 12:22:36;;;;;;;;;;;;;;;21.10;60.35;100065.81;4380956;32;20006;-88
2022/09/22 12:25:02;;;;;;;;;;;;;;;21.11;60.35;100076.31;4381189;32;20009;-88
2022/09/22 12:27:27;;;;;;;;;;;;;;;20.91;60.33;100052.19;4394645;32;19978;-88
2022/09/22 12:29:53;;;;;;;;;;;;;;;20.68;60.32;100070.50;4368495;32;19979;-89
2022/09/22 12:32:22;;;;;;;;;;;;;;;20.57;60.31;100075.66;4380922;32;20005;-89
2022/09/22 12:34:48;;;;;;;;;;;;;;;20.60;60.31;100079.94;4381154;32;19999;-90
2022/09/22 12:37:15;;;;;;;;;;;;;;;20.77;60.33;100074.31;4394778;32;20331;-88
2022/09/22 12:39:42;;;;;;;;;;;;;;;21.10;60.35;100077.25;4380968;32;19971;-88
2022/09/22 12:42:27;;;;;;;;;;;;;;;20.79;60.33;100075.03;4368520;32;19990;-89
2022/09/22 12:44:52;;;;;;;;;;;;;;;20.97;60.34;100068.47;4369729;32;20065;-86
2022/09/22 12:47:29;;;;;;;;;;;;;;;21.02;60.34;100071.63;4383339;32;19998;-87
2022/09/22 12:49:55;;;;;;;;;;;;;;;21.15;60.34;100069.84;4383307;32;19966;-87
2022/09/22 12:52:39;;;;;;;;;;;;;;;21.32;60.36;100071.31;4371076;32;20013;-88
2022/09/22 12:55:22;;;;;;;;;;;;;;;21.40;60.37;100060.19;4395681;32;19996;-87
2022/09/22 12:57:49;;;;;;;;;;;;;;;21.42;60.36;100068.84;4381041;32;19993;-87
2022/09/22 13:00:33;;;;;;;;;;;;;;;21.29;60.36;100060.09;4369549;32;20306;-87
2022/09/22 13:02:58;;;;;;;;;;;;;;;21.40;60.36;100053.06;4386630;32;20707;-87